createdAt,value
2023-07-22T00:06:22.079Z,15.20
2023-07-22T00:16:26.011Z,14.60
2023-07-22T00:26:31.307Z,14.90
2023-07-22T00:36:35.071Z,14.90
2023-07-22T00:46:40.162Z,14.80
2023-07-22T00:56:44.772Z,14.70
2023-07-22T01:06:51.461Z,14.50
2023-07-22T01:16:55.184Z,14.30
2023-07-22T01:27:00.464Z,14.50
2023-07-22T01:37:05.781Z,14.50
2023-07-22T01:47:10.826Z,14.40
2023-07-22T01:57:14.521Z,14.30
2023-07-22T02:07:19.529Z,14.20
2023-07-22T02:17:23.222Z,14.20
2023-07-22T02:27:28.235Z,14.20
2023-07-22T02:37:31.937Z,13.60
2023-07-22T02:47:37.172Z,13.30
2023-07-22T02:57:42.685Z,13.10
2023-07-22T03:07:47.902Z,12.90
2023-07-22T03:17:51.811Z,13.00
2023-07-22T03:27:57.621Z,12.90
2023-07-22T03:38:01.338Z,12.80
2023-07-22T03:48:07.318Z,12.80
2023-07-22T03:58:11.081Z,12.70
2023-07-22T04:08:16.085Z,12.60
2023-07-22T04:18:21.785Z,12.60
2023-07-22T04:28:26.878Z,12.90
2023-07-22T04:38:30.707Z,13.10
2023-07-22T04:48:35.972Z,13.30
2023-07-22T04:58:39.864Z,13.30
2023-07-22T05:08:44.905Z,13.40
2023-07-22T05:18:48.692Z,13.30
2023-07-22T05:28:53.807Z,13.30
2023-07-22T05:38:57.574Z,13.60
2023-07-22T05:49:02.580Z,14.30
2023-07-22T05:59:06.254Z,14.80
2023-07-22T06:09:11.231Z,15.20
2023-07-22T06:19:14.889Z,15.50
2023-07-22T06:29:19.947Z,15.80
2023-07-22T06:39:23.782Z,16.10
2023-07-22T06:49:28.840Z,16.50
2023-07-22T06:59:32.558Z,17.00
2023-07-22T07:09:38.706Z,17.10
2023-07-22T07:19:42.471Z,18.00
2023-07-22T07:29:54.318Z,18.50
2023-07-22T07:40:00.611Z,18.80
2023-07-22T07:50:07.957Z,19.30
2023-07-22T08:00:13.191Z,19.50
2023-07-22T08:10:19.016Z,19.60
2023-07-22T08:20:23.268Z,19.60
2023-07-22T08:30:28.649Z,19.50
2023-07-22T08:40:36.106Z,19.50
2023-07-22T08:50:47.604Z,20.00
2023-07-22T09:00:51.599Z,20.30
2023-07-22T09:10:57.990Z,20.90
2023-07-22T09:21:02.088Z,21.20
2023-07-22T09:31:07.767Z,21.70
2023-07-22T09:41:12.585Z,22.20
2023-07-22T09:51:18.351Z,22.00
2023-07-22T10:01:25.475Z,21.80
2023-07-22T10:11:33.422Z,21.90
2023-07-22T10:21:39.059Z,22.30
2023-07-22T10:31:44.470Z,22.90
2023-07-22T10:41:49.615Z,23.00
2023-07-22T10:51:55.024Z,22.70
2023-07-22T11:01:59.106Z,22.70
2023-07-22T11:12:06.933Z,23.40
2023-07-22T11:22:12.465Z,23.00
2023-07-22T11:32:23.485Z,23.20
2023-07-22T11:42:27.639Z,23.30
2023-07-22T11:52:32.944Z,23.50
2023-07-22T12:02:38.735Z,23.80
2023-07-22T12:12:47.097Z,23.50
2023-07-22T12:22:51.002Z,23.40
2023-07-22T12:32:56.096Z,24.20
2023-07-22T12:43:02.165Z,23.90
2023-07-22T12:53:07.555Z,23.20
2023-07-22T13:03:11.389Z,23.50
2023-07-22T13:13:16.571Z,23.90
2023-07-22T13:23:20.346Z,24.40
2023-07-22T13:33:25.435Z,24.30
2023-07-22T13:43:29.499Z,24.50
2023-07-22T13:53:34.551Z,24.50
2023-07-22T14:03:38.600Z,24.50
2023-07-22T14:13:43.759Z,24.60
2023-07-22T14:23:47.499Z,24.70
2023-07-22T14:33:52.613Z,25.50
2023-07-22T14:43:56.289Z,25.80
2023-07-22T14:54:01.695Z,25.90
2023-07-22T15:04:06.364Z,25.80
2023-07-22T15:14:11.948Z,25.80
2023-07-22T15:24:15.690Z,26.20
2023-07-22T15:34:20.810Z,26.50
2023-07-22T15:44:28.399Z,26.40
2023-07-22T15:54:33.954Z,26.70
2023-07-22T16:04:38.431Z,26.90
2023-07-22T16:14:43.941Z,27.90
2023-07-22T16:24:47.688Z,27.20
2023-07-22T16:34:52.798Z,27.30
2023-07-22T16:44:56.651Z,27.80
2023-07-22T16:55:01.761Z,28.00
2023-07-22T17:05:06.848Z,28.10
2023-07-22T17:15:12.750Z,29.20
2023-07-22T17:25:17.302Z,29.80
2023-07-22T17:35:22.863Z,29.60
2023-07-22T17:45:26.635Z,28.90
2023-07-22T17:55:33.077Z,29.20
2023-07-22T18:05:36.783Z,28.80
2023-07-22T18:15:41.974Z,27.00
2023-07-22T18:25:46.007Z,25.50
2023-07-22T18:35:52.476Z,24.80
2023-07-22T18:45:56.192Z,24.40
2023-07-22T18:56:01.584Z,24.00
2023-07-22T19:06:05.429Z,23.70
2023-07-22T19:16:10.661Z,23.40
2023-07-22T19:26:14.363Z,23.20
2023-07-22T19:36:19.640Z,22.80
2023-07-22T19:46:24.044Z,22.60
2023-07-22T19:56:29.291Z,22.30
2023-07-22T20:06:33.089Z,21.80
2023-07-22T20:16:38.331Z,21.50
2023-07-22T20:26:42.228Z,21.30
2023-07-22T20:36:47.364Z,21.40
2023-07-22T20:46:51.062Z,21.20
2023-07-22T20:56:56.455Z,21.00
2023-07-22T21:07:00.191Z,20.90
2023-07-22T21:17:06.119Z,20.80
2023-07-22T21:27:10.412Z,20.70
2023-07-22T21:37:15.773Z,20.50
2023-07-22T21:47:19.764Z,20.40
2023-07-22T21:57:25.012Z,20.10
2023-07-22T22:07:28.710Z,20.00
2023-07-22T22:17:38.064Z,19.50
2023-07-22T22:27:48.300Z,19.30
2023-07-22T22:37:53.484Z,19.30
2023-07-22T22:47:57.212Z,19.20
2023-07-22T22:58:12.981Z,19.20
2023-07-22T23:08:17.022Z,19.00
2023-07-22T23:18:23.133Z,19.00
2023-07-22T23:28:26.909Z,18.90
2023-07-22T23:38:33.102Z,18.70
2023-07-22T23:48:36.807Z,18.70
2023-07-22T23:58:42.190Z,18.70
